sensor_id;sensor_type;location;lat;lon;timestamp;pressure;altitude;pressure_sealevel;temperature;humidity
4326;BME280;58429;49.826;10.880;2022-08-21T00:00:53;98715;;;16.62;87.3
4326;BME280;58429;49.826;10.880;2022-08-21T00:01:53;98719;;;16.6;87.27
4326;BME280;58429;49.826;10.880;2022-08-21T00:02:54;98720;;;16.61;87.33
4326;BME280;58429;49.826;10.880;2022-08-21T00:03:53;98723;;;16.63;87.46
4326;BME280;58429;49.826;10.880;2022-08-21T00:04:53;98715;;;16.64;87.35
4326;BME280;58429;49.826;10.880;2022-08-21T00:05:53;98714;;;16.66;87.02
4326;BME280;58429;49.826;10.880;2022-08-21T00:06:53;98716;;;16.71;86.92
4326;BME280;58429;49.826;10.880;2022-08-21T00:07:53;98715;;;16.69;86.79
4326;BME280;58429;49.826;10.880;2022-08-21T00:08:53;98710;;;16.78;86.68
4326;BME280;58429;49.826;10.880;2022-08-21T00:09:53;98711;;;16.81;86.57
4326;BME280;58429;49.826;10.880;2022-08-21T00:10:53;98713;;;16.82;86.48
4326;BME280;58429;49.826;10.880;2022-08-21T00:11:53;98707;;;16.83;86.49
4326;BME280;58429;49.826;10.880;2022-08-21T00:12:53;98713;;;16.83;86.45
4326;BME280;58429;49.826;10.880;2022-08-21T00:13:54;98709;;;16.84;86.42
4326;BME280;58429;49.826;10.880;2022-08-21T00:14:53;98709;;;16.86;86.47
4326;BME280;58429;49.826;10.880;2022-08-21T00:15:53;98708;;;16.85;86.39
4326;BME280;58429;49.826;10.880;2022-08-21T00:16:53;98706;;;16.87;86.39
4326;BME280;58429;49.826;10.880;2022-08-21T00:17:53;98710;;;16.87;86.36
4326;BME280;58429;49.826;10.880;2022-08-21T00:18:53;98707;;;16.89;86.26
4326;BME280;58429;49.826;10.880;2022-08-21T00:19:53;98706;;;16.89;86.18
4326;BME280;58429;49.826;10.880;2022-08-21T00:20:53;98703;;;16.94;86.09
4326;BME280;58429;49.826;10.880;2022-08-21T00:21:53;98701;;;16.92;85.95
4326;BME280;58429;49.826;10.880;2022-08-21T00:22:53;98702;;;16.91;85.87
4326;BME280;58429;49.826;10.880;2022-08-21T00:23:53;98702;;;16.94;85.89
4326;BME280;58429;49.826;10.880;2022-08-21T00:24:53;98704;;;16.93;85.86
4326;BME280;58429;49.826;10.880;2022-08-21T00:25:53;98695;;;16.94;85.87
4326;BME280;58429;49.826;10.880;2022-08-21T00:26:53;98696;;;16.93;85.83
4326;BME280;58429;49.826;10.880;2022-08-21T00:27:53;98694;;;16.95;85.82
4326;BME280;58429;49.826;10.880;2022-08-21T00:28:53;98697;;;16.91;85.78
4326;BME280;58429;49.826;10.880;2022-08-21T00:29:53;98690;;;16.9;85.78
4326;BME280;58429;49.826;10.880;2022-08-21T00:30:53;98689;;;16.93;85.8
4326;BME280;58429;49.826;10.880;2022-08-21T00:31:53;98697;;;16.92;85.79
4326;BME280;58429;49.826;10.880;2022-08-21T00:32:54;98685;;;16.88;85.77
4326;BME280;58429;49.826;10.880;2022-08-21T00:33:53;98693;;;16.9;85.77
4326;BME280;58429;49.826;10.880;2022-08-21T00:34:53;98692;;;16.92;85.7
4326;BME280;58429;49.826;10.880;2022-08-21T00:35:53;98694;;;16.92;85.76
4326;BME280;58429;49.826;10.880;2022-08-21T00:36:53;98689;;;16.94;85.74
4326;BME280;58429;49.826;10.880;2022-08-21T00:37:53;98691;;;16.93;85.7
4326;BME280;58429;49.826;10.880;2022-08-21T00:38:53;98692;;;16.95;85.63
4326;BME280;58429;49.826;10.880;2022-08-21T00:39:53;98689;;;16.91;85.57
4326;BME280;58429;49.826;10.880;2022-08-21T00:40:55;98690;;;16.91;85.51
4326;BME280;58429;49.826;10.880;2022-08-21T00:41:53;98693;;;16.94;85.53
4326;BME280;58429;49.826;10.880;2022-08-21T00:42:53;98693;;;16.89;85.83
4326;BME280;58429;49.826;10.880;2022-08-21T00:43:53;98687;;;16.9;85.86
4326;BME280;58429;49.826;10.880;2022-08-21T00:44:53;98693;;;16.92;85.79
4326;BME280;58429;49.826;10.880;2022-08-21T00:45:53;98690;;;16.88;85.67
4326;BME280;58429;49.826;10.880;2022-08-21T00:46:53;98693;;;16.88;85.8
4326;BME280;58429;49.826;10.880;2022-08-21T00:47:53;98692;;;16.87;85.77
4326;BME280;58429;49.826;10.880;2022-08-21T00:48:53;98688;;;16.9;85.78
4326;BME280;58429;49.826;10.880;2022-08-21T00:49:53;98693;;;16.87;85.81
4326;BME280;58429;49.826;10.880;2022-08-21T00:50:55;98691;;;16.87;85.81
4326;BME280;58429;49.826;10.880;2022-08-21T00:51:54;98685;;;16.88;85.82
4326;BME280;58429;49.826;10.880;2022-08-21T00:52:53;98681;;;16.89;85.85
4326;BME280;58429;49.826;10.880;2022-08-21T00:53:56;98675;;;16.92;85.82
4326;BME280;58429;49.826;10.880;2022-08-21T00:54:54;98676;;;16.92;85.82
4326;BME280;58429;49.826;10.880;2022-08-21T00:55:53;98671;;;16.89;85.85
4326;BME280;58429;49.826;10.880;2022-08-21T00:56:54;98679;;;16.91;85.86
4326;BME280;58429;49.826;10.880;2022-08-21T00:57:54;98679;;;16.93;85.94
4326;BME280;58429;49.826;10.880;2022-08-21T00:58:53;98682;;;16.91;86.02
4326;BME280;58429;49.826;10.880;2022-08-21T00:59:54;98680;;;16.89;86.11
4326;BME280;58429;49.826;10.880;2022-08-21T01:00:53;98682;;;16.93;86.22
4326;BME280;58429;49.826;10.880;2022-08-21T01:01:53;98679;;;16.91;86.19
4326;BME280;58429;49.826;10.880;2022-08-21T01:02:53;98681;;;16.94;86.32
4326;BME280;58429;49.826;10.880;2022-08-21T01:03:53;98676;;;16.95;86.34
4326;BME280;58429;49.826;10.880;2022-08-21T01:04:53;98676;;;16.95;86.4
4326;BME280;58429;49.826;10.880;2022-08-21T01:05:53;98674;;;16.92;86.46
4326;BME280;58429;49.826;10.880;2022-08-21T01:06:53;98669;;;16.94;86.47
4326;BME280;58429;49.826;10.880;2022-08-21T01:07:53;98673;;;16.95;86.55
4326;BME280;58429;49.826;10.880;2022-08-21T01:08:53;98677;;;16.96;86.49
4326;BME280;58429;49.826;10.880;2022-08-21T01:09:53;98676;;;16.92;86.53
4326;BME280;58429;49.826;10.880;2022-08-21T01:10:53;98680;;;16.94;86.44
4326;BME280;58429;49.826;10.880;2022-08-21T01:11:53;98670;;;16.91;86.46
4326;BME280;58429;49.826;10.880;2022-08-21T01:12:54;98678;;;16.9;86.34
4326;BME280;58429;49.826;10.880;2022-08-21T01:13:54;98673;;;16.92;86.31
4326;BME280;58429;49.826;10.880;2022-08-21T01:14:53;98673;;;16.96;86.31
4326;BME280;58429;49.826;10.880;2022-08-21T01:15:54;98671;;;16.93;86.3
4326;BME280;58429;49.826;10.880;2022-08-21T01:16:53;98676;;;16.94;86.31
4326;BME280;58429;49.826;10.880;2022-08-21T01:17:53;98672;;;16.94;86.39
4326;BME280;58429;49.826;10.880;2022-08-21T01:18:53;98678;;;16.92;86.66
4326;BME280;58429;49.826;10.880;2022-08-21T01:19:56;98672;;;16.92;86.81
4326;BME280;58429;49.826;10.880;2022-08-21T01:20:59;98681;;;16.89;86.54
4326;BME280;58429;49.826;10.880;2022-08-21T01:21:53;98677;;;16.9;86.6
4326;BME280;58429;49.826;10.880;2022-08-21T01:22:53;98678;;;16.91;86.47
4326;BME280;58429;49.826;10.880;2022-08-21T01:23:53;98672;;;16.91;86.47
4326;BME280;58429;49.826;10.880;2022-08-21T01:24:53;98673;;;16.89;86.5
4326;BME280;58429;49.826;10.880;2022-08-21T01:25:53;98676;;;16.89;86.53
4326;BME280;58429;49.826;10.880;2022-08-21T01:26:53;98667;;;16.91;86.6
4326;BME280;58429;49.826;10.880;2022-08-21T01:27:53;98674;;;16.88;86.58
4326;BME280;58429;49.826;10.880;2022-08-21T01:28:54;98677;;;16.88;86.6
4326;BME280;58429;49.826;10.880;2022-08-21T01:29:54;98679;;;16.89;86.5
4326;BME280;58429;49.826;10.880;2022-08-21T01:30:53;98674;;;16.91;86.63
4326;BME280;58429;49.826;10.880;2022-08-21T01:31:53;98674;;;16.89;86.52
4326;BME280;58429;49.826;10.880;2022-08-21T01:32:53;98669;;;16.88;86.46
4326;BME280;58429;49.826;10.880;2022-08-21T01:33:54;98676;;;16.86;86.37
4326;BME280;58429;49.826;10.880;2022-08-21T01:34:53;98671;;;16.86;86.4
4326;BME280;58429;49.826;10.880;2022-08-21T01:35:53;98673;;;16.86;86.37
4326;BME280;58429;49.826;10.880;2022-08-21T01:36:53;98673;;;16.84;86.29
4326;BME280;58429;49.826;10.880;2022-08-21T01:37:53;98675;;;16.86;86.29
4326;BME280;58429;49.826;10.880;2022-08-21T01:38:53;98674;;;16.85;86.32
4326;BME280;58429;49.826;10.880;2022-08-21T01:39:53;98674;;;16.85;86.33
4326;BME280;58429;49.826;10.880;2022-08-21T01:40:53;98665;;;16.84;86.25
4326;BME280;58429;49.826;10.880;2022-08-21T01:41:53;98668;;;16.83;86.25
4326;BME280;58429;49.826;10.880;2022-08-21T01:42:53;98658;;;16.82;86.33
4326;BME280;58429;49.826;10.880;2022-08-21T01:43:53;98672;;;16.82;86.31
4326;BME280;58429;49.826;10.880;2022-08-21T01:44:53;98670;;;16.83;86.28
4326;BME280;58429;49.826;10.880;2022-08-21T01:45:53;98670;;;16.85;86.3
4326;BME280;58429;49.826;10.880;2022-08-21T01:46:55;98672;;;16.82;86.21
4326;BME280;58429;49.826;10.880;2022-08-21T01:47:53;98675;;;16.81;86.21
4326;BME280;58429;49.826;10.880;2022-08-21T01:48:53;98668;;;16.81;86.19
4326;BME280;58429;49.826;10.880;2022-08-21T01:49:53;98670;;;16.8;86.19
4326;BME280;58429;49.826;10.880;2022-08-21T01:50:53;98675;;;16.8;86.33
4326;BME280;58429;49.826;10.880;2022-08-21T01:51:53;98676;;;16.79;86.22
4326;BME280;58429;49.826;10.880;2022-08-21T01:52:54;98674;;;16.77;86.1
4326;BME280;58429;49.826;10.880;2022-08-21T01:53:53;98671;;;16.73;86.18
4326;BME280;58429;49.826;10.880;2022-08-21T01:54:53;98673;;;16.7;85.99
4326;BME280;58429;49.826;10.880;2022-08-21T01:55:53;98672;;;16.77;86.09
4326;BME280;58429;49.826;10.880;2022-08-21T01:56:53;98672;;;16.68;86.16
4326;BME280;58429;49.826;10.880;2022-08-21T01:57:53;98671;;;16.67;86
4326;BME280;58429;49.826;10.880;2022-08-21T01:58:53;98663;;;16.69;86.09
4326;BME280;58429;49.826;10.880;2022-08-21T01:59:53;98669;;;16.68;86.22
4326;BME280;58429;49.826;10.880;2022-08-21T02:00:53;98666;;;16.69;86.09
4326;BME280;58429;49.826;10.880;2022-08-21T02:01:53;98671;;;16.64;86.23
4326;BME280;58429;49.826;10.880;2022-08-21T02:02:53;98668;;;16.63;86.72
4326;BME280;58429;49.826;10.880;2022-08-21T02:03:53;98667;;;16.64;86.44
4326;BME280;58429;49.826;10.880;2022-08-21T02:04:53;98669;;;16.6;86.61
4326;BME280;58429;49.826;10.880;2022-08-21T02:05:53;98669;;;16.6;86.57
4326;BME280;58429;49.826;10.880;2022-08-21T02:06:53;98667;;;16.61;86.56
4326;BME280;58429;49.826;10.880;2022-08-21T02:07:53;98670;;;16.59;86.51
4326;BME280;58429;49.826;10.880;2022-08-21T02:08:53;98666;;;16.61;86.45
4326;BME280;58429;49.826;10.880;2022-08-21T02:09:53;98664;;;16.58;86.46
4326;BME280;58429;49.826;10.880;2022-08-21T02:10:53;98661;;;16.59;86.41
4326;BME280;58429;49.826;10.880;2022-08-21T02:11:53;98667;;;16.61;86.7
4326;BME280;58429;49.826;10.880;2022-08-21T02:12:54;98662;;;16.54;86.79
4326;BME280;58429;49.826;10.880;2022-08-21T02:13:53;98663;;;16.47;86.64
4326;BME280;58429;49.826;10.880;2022-08-21T02:14:53;98659;;;16.47;86.52
4326;BME280;58429;49.826;10.880;2022-08-21T02:15:53;98657;;;16.46;86.93
4326;BME280;58429;49.826;10.880;2022-08-21T02:16:53;98663;;;16.47;87.04
4326;BME280;58429;49.826;10.880;2022-08-21T02:17:54;98665;;;16.47;86.66
4326;BME280;58429;49.826;10.880;2022-08-21T02:18:53;98659;;;16.42;86.55
4326;BME280;58429;49.826;10.880;2022-08-21T02:19:53;98655;;;16.4;86.81
4326;BME280;58429;49.826;10.880;2022-08-21T02:20:53;98662;;;16.38;86.96
4326;BME280;58429;49.826;10.880;2022-08-21T02:21:53;98655;;;16.42;86.75
4326;BME280;58429;49.826;10.880;2022-08-21T02:22:53;98659;;;16.38;86.9
4326;BME280;58429;49.826;10.880;2022-08-21T02:23:53;98657;;;16.37;86.78
4326;BME280;58429;49.826;10.880;2022-08-21T02:24:53;98653;;;16.34;86.88
4326;BME280;58429;49.826;10.880;2022-08-21T02:25:53;98661;;;16.33;86.96
4326;BME280;58429;49.826;10.880;2022-08-21T02:26:53;98665;;;16.34;86.97
4326;BME280;58429;49.826;10.880;2022-08-21T02:27:54;98659;;;16.33;87.08
4326;BME280;58429;49.826;10.880;2022-08-21T02:28:53;98666;;;16.32;87.03
4326;BME280;58429;49.826;10.880;2022-08-21T02:29:54;98666;;;16.3;87.3
4326;BME280;58429;49.826;10.880;2022-08-21T02:30:54;98665;;;16.31;87.01
4326;BME280;58429;49.826;10.880;2022-08-21T02:31:53;98657;;;16.32;87.18
4326;BME280;58429;49.826;10.880;2022-08-21T02:32:54;98662;;;16.31;86.93
4326;BME280;58429;49.826;10.880;2022-08-21T02:33:54;98663;;;16.31;86.96
4326;BME280;58429;49.826;10.880;2022-08-21T02:34:53;98659;;;16.31;87.13
4326;BME280;58429;49.826;10.880;2022-08-21T02:35:54;98664;;;16.3;87.14
4326;BME280;58429;49.826;10.880;2022-08-21T02:36:53;98667;;;16.31;87.03
4326;BME280;58429;49.826;10.880;2022-08-21T02:37:55;98665;;;16.32;87.15
4326;BME280;58429;49.826;10.880;2022-08-21T02:38:53;98665;;;16.29;87.11
4326;BME280;58429;49.826;10.880;2022-08-21T02:39:53;98664;;;16.3;87.18
4326;BME280;58429;49.826;10.880;2022-08-21T02:40:54;98668;;;16.31;87.08
4326;BME280;58429;49.826;10.880;2022-08-21T02:41:53;98665;;;16.29;87.07
4326;BME280;58429;49.826;10.880;2022-08-21T02:42:53;98669;;;16.27;86.96
4326;BME280;58429;49.826;10.880;2022-08-21T02:43:53;98662;;;16.31;86.98
4326;BME280;58429;49.826;10.880;2022-08-21T02:44:54;98670;;;16.3;87.05
4326;BME280;58429;49.826;10.880;2022-08-21T02:45:54;98663;;;16.29;86.93
4326;BME280;58429;49.826;10.880;2022-08-21T02:46:53;98667;;;16.3;86.94
4326;BME280;58429;49.826;10.880;2022-08-21T02:47:54;98670;;;16.28;86.94
4326;BME280;58429;49.826;10.880;2022-08-21T02:48:53;98663;;;16.24;86.91
4326;BME280;58429;49.826;10.880;2022-08-21T02:49:53;98667;;;16.25;86.81
4326;BME280;58429;49.826;10.880;2022-08-21T02:50:55;98660;;;16.27;86.82
4326;BME280;58429;49.826;10.880;2022-08-21T02:51:53;98669;;;16.25;86.79
4326;BME280;58429;49.826;10.880;2022-08-21T02:52:54;98671;;;16.22;86.73
4326;BME280;58429;49.826;10.880;2022-08-21T02:53:53;98667;;;16.24;86.95
4326;BME280;58429;49.826;10.880;2022-08-21T02:54:54;98668;;;16.25;86.71
4326;BME280;58429;49.826;10.880;2022-08-21T02:55:53;98665;;;16.24;86.7
4326;BME280;58429;49.826;10.880;2022-08-21T02:56:54;98663;;;16.24;86.8
4326;BME280;58429;49.826;10.880;2022-08-21T02:57:54;98671;;;16.18;86.97
4326;BME280;58429;49.826;10.880;2022-08-21T02:58:53;98669;;;16.18;86.87
4326;BME280;58429;49.826;10.880;2022-08-21T02:59:53;98675;;;16.23;87.03
4326;BME280;58429;49.826;10.880;2022-08-21T03:00:53;98664;;;16.18;87.06
4326;BME280;58429;49.826;10.880;2022-08-21T03:01:53;98668;;;16.17;87.04
4326;BME280;58429;49.826;10.880;2022-08-21T03:02:54;98675;;;16.14;87.09
4326;BME280;58429;49.826;10.880;2022-08-21T03:03:53;98674;;;16.14;87
4326;BME280;58429;49.826;10.880;2022-08-21T03:04:53;98676;;;16.16;86.89
4326;BME280;58429;49.826;10.880;2022-08-21T03:05:54;98669;;;16.09;86.9
4326;BME280;58429;49.826;10.880;2022-08-21T03:06:53;98671;;;16.11;87.15
4326;BME280;58429;49.826;10.880;2022-08-21T03:07:54;98670;;;16.09;87.26
4326;BME280;58429;49.826;10.880;2022-08-21T03:08:54;98673;;;16.08;87.04
4326;BME280;58429;49.826;10.880;2022-08-21T03:09:53;98671;;;16.08;87.01
4326;BME280;58429;49.826;10.880;2022-08-21T03:10:54;98673;;;16.08;87
4326;BME280;58429;49.826;10.880;2022-08-21T03:11:53;98667;;;16.09;86.98
4326;BME280;58429;49.826;10.880;2022-08-21T03:12:54;98663;;;16.12;87.01
4326;BME280;58429;49.826;10.880;2022-08-21T03:13:54;98671;;;16.12;87.02
4326;BME280;58429;49.826;10.880;2022-08-21T03:14:53;98665;;;16.11;86.94
4326;BME280;58429;49.826;10.880;2022-08-21T03:15:54;98664;;;16.12;87.43
4326;BME280;58429;49.826;10.880;2022-08-21T03:16:53;98669;;;16.06;87.64
4326;BME280;58429;49.826;10.880;2022-08-21T03:17:54;98668;;;16.03;87.42
4326;BME280;58429;49.826;10.880;2022-08-21T03:18:54;98655;;;16.03;87.72
4326;BME280;58429;49.826;10.880;2022-08-21T03:19:54;98661;;;15.97;87.83
4326;BME280;58429;49.826;10.880;2022-08-21T03:20:53;98662;;;15.96;88.03
4326;BME280;58429;49.826;10.880;2022-08-21T03:21:54;98654;;;15.91;87.84
4326;BME280;58429;49.826;10.880;2022-08-21T03:22:54;98668;;;15.94;87.68
4326;BME280;58429;49.826;10.880;2022-08-21T03:23:54;98664;;;15.94;87.88
4326;BME280;58429;49.826;10.880;2022-08-21T03:24:54;98663;;;15.96;87.83
4326;BME280;58429;49.826;10.880;2022-08-21T03:25:53;98663;;;15.91;88
4326;BME280;58429;49.826;10.880;2022-08-21T03:26:54;98660;;;15.91;87.95
4326;BME280;58429;49.826;10.880;2022-08-21T03:27:53;98658;;;15.87;88.1
4326;BME280;58429;49.826;10.880;2022-08-21T03:28:54;98659;;;15.9;88.26
4326;BME280;58429;49.826;10.880;2022-08-21T03:29:53;98658;;;15.88;88.08
4326;BME280;58429;49.826;10.880;2022-08-21T03:30:54;98661;;;15.9;88.1
4326;BME280;58429;49.826;10.880;2022-08-21T03:31:53;98661;;;15.91;87.93
4326;BME280;58429;49.826;10.880;2022-08-21T03:32:54;98662;;;15.93;87.97
4326;BME280;58429;49.826;10.880;2022-08-21T03:33:53;98662;;;15.91;88.06
4326;BME280;58429;49.826;10.880;2022-08-21T03:34:54;98666;;;15.87;88.35
4326;BME280;58429;49.826;10.880;2022-08-21T03:35:56;98664;;;15.84;88.23
4326;BME280;58429;49.826;10.880;2022-08-21T03:36:53;98664;;;15.83;88.4
4326;BME280;58429;49.826;10.880;2022-08-21T03:37:54;98663;;;15.84;88
4326;BME280;58429;49.826;10.880;2022-08-21T03:38:54;98666;;;15.82;87.93
4326;BME280;58429;49.826;10.880;2022-08-21T03:39:54;98669;;;15.83;88.14
4326;BME280;58429;49.826;10.880;2022-08-21T03:40:54;98666;;;15.83;88.43
4326;BME280;58429;49.826;10.880;2022-08-21T03:41:54;98669;;;15.81;88.52
4326;BME280;58429;49.826;10.880;2022-08-21T03:42:54;98669;;;15.82;88.51
4326;BME280;58429;49.826;10.880;2022-08-21T03:43:54;98666;;;15.81;88.54
4326;BME280;58429;49.826;10.880;2022-08-21T03:44:54;98669;;;15.82;88.43
4326;BME280;58429;49.826;10.880;2022-08-21T03:45:54;98667;;;15.83;88.42
4326;BME280;58429;49.826;10.880;2022-08-21T03:46:54;98664;;;15.81;88.69
4326;BME280;58429;49.826;10.880;2022-08-21T03:47:54;98671;;;15.81;88.59
4326;BME280;58429;49.826;10.880;2022-08-21T03:48:54;98666;;;15.77;88.65
4326;BME280;58429;49.826;10.880;2022-08-21T03:49:54;98667;;;15.77;88.6
4326;BME280;58429;49.826;10.880;2022-08-21T03:50:54;98669;;;15.76;88.87
4326;BME280;58429;49.826;10.880;2022-08-21T03:51:54;98662;;;15.74;88.71
4326;BME280;58429;49.826;10.880;2022-08-21T03:52:54;98664;;;15.72;88.63
4326;BME280;58429;49.826;10.880;2022-08-21T03:53:54;98666;;;15.74;88.93
4326;BME280;58429;49.826;10.880;2022-08-21T03:54:54;98670;;;15.75;88.48
4326;BME280;58429;49.826;10.880;2022-08-21T03:55:54;98666;;;15.73;88.41
4326;BME280;58429;49.826;10.880;2022-08-21T03:56:54;98666;;;15.69;88.95
4326;BME280;58429;49.826;10.880;2022-08-21T03:57:54;98672;;;15.65;88.9
4326;BME280;58429;49.826;10.880;2022-08-21T03:58:54;98674;;;15.61;88.84
4326;BME280;58429;49.826;10.880;2022-08-21T03:59:54;98668;;;15.6;88.69
4326;BME280;58429;49.826;10.880;2022-08-21T04:00:55;98671;;;15.61;88.88
4326;BME280;58429;49.826;10.880;2022-08-21T04:01:55;98667;;;15.59;88.74
4326;BME280;58429;49.826;10.880;2022-08-21T04:02:54;98675;;;15.57;88.68
4326;BME280;58429;49.826;10.880;2022-08-21T04:03:54;98674;;;15.59;88.54
4326;BME280;58429;49.826;10.880;2022-08-21T04:04:54;98675;;;15.61;88.51
4326;BME280;58429;49.826;10.880;2022-08-21T04:05:54;98670;;;15.59;88.67
4326;BME280;58429;49.826;10.880;2022-08-21T04:06:54;98677;;;15.6;88.62
4326;BME280;58429;49.826;10.880;2022-08-21T04:07:54;98676;;;15.63;88.5
4326;BME280;58429;49.826;10.880;2022-08-21T04:08:54;98678;;;15.65;88.73
4326;BME280;58429;49.826;10.880;2022-08-21T04:09:54;98679;;;15.63;88.42
4326;BME280;58429;49.826;10.880;2022-08-21T04:10:55;98680;;;15.65;88.45
4326;BME280;58429;49.826;10.880;2022-08-21T04:11:54;98678;;;15.67;88.29
4326;BME280;58429;49.826;10.880;2022-08-21T04:12:54;98681;;;15.68;88.25
4326;BME280;58429;49.826;10.880;2022-08-21T04:13:54;98678;;;15.65;88.45
4326;BME280;58429;49.826;10.880;2022-08-21T04:14:54;98681;;;15.7;88.67
4326;BME280;58429;49.826;10.880;2022-08-21T04:15:54;98678;;;15.65;88.54
4326;BME280;58429;49.826;10.880;2022-08-21T04:16:54;98674;;;15.61;88.79
4326;BME280;58429;49.826;10.880;2022-08-21T04:17:54;98678;;;15.63;88.72
4326;BME280;58429;49.826;10.880;2022-08-21T04:18:54;98679;;;15.63;88.58
4326;BME280;58429;49.826;10.880;2022-08-21T04:19:54;98687;;;15.66;88.45
4326;BME280;58429;49.826;10.880;2022-08-21T04:20:54;98682;;;15.63;88.34
4326;BME280;58429;49.826;10.880;2022-08-21T04:21:54;98686;;;15.63;88.69
4326;BME280;58429;49.826;10.880;2022-08-21T04:22:54;98685;;;15.63;88.39
4326;BME280;58429;49.826;10.880;2022-08-21T04:23:54;98695;;;15.67;88.65
4326;BME280;58429;49.826;10.880;2022-08-21T04:24:54;98693;;;15.67;88.52
4326;BME280;58429;49.826;10.880;2022-08-21T04:25:54;98699;;;15.68;88.55
4326;BME280;58429;49.826;10.880;2022-08-21T04:26:54;98695;;;15.69;88.4
4326;BME280;58429;49.826;10.880;2022-08-21T04:27:54;98702;;;15.71;88.78
4326;BME280;58429;49.826;10.880;2022-08-21T04:28:54;98694;;;15.69;88.64
4326;BME280;58429;49.826;10.880;2022-08-21T04:29:54;98689;;;15.66;88.34
4326;BME280;58429;49.826;10.880;2022-08-21T04:30:54;98701;;;15.66;88.53
4326;BME280;58429;49.826;10.880;2022-08-21T04:31:54;98696;;;15.65;88.68
4326;BME280;58429;49.826;10.880;2022-08-21T04:32:54;98703;;;15.62;88.47
4326;BME280;58429;49.826;10.880;2022-08-21T04:33:54;98699;;;15.65;88.47
4326;BME280;58429;49.826;10.880;2022-08-21T04:34:57;98707;;;15.66;88.46
4326;BME280;58429;49.826;10.880;2022-08-21T04:35:54;98703;;;15.67;88.56
4326;BME280;58429;49.826;10.880;2022-08-21T04:36:54;98712;;;15.65;88.41
4326;BME280;58429;49.826;10.880;2022-08-21T04:37:54;98705;;;15.65;88.49
4326;BME280;58429;49.826;10.880;2022-08-21T04:38:54;98710;;;15.64;88.54
4326;BME280;58429;49.826;10.880;2022-08-21T04:39:54;98706;;;15.64;88.62
4326;BME280;58429;49.826;10.880;2022-08-21T04:40:54;98706;;;15.63;88.54
4326;BME280;58429;49.826;10.880;2022-08-21T04:41:54;98708;;;15.62;88.46
4326;BME280;58429;49.826;10.880;2022-08-21T04:42:54;98714;;;15.65;88.33
4326;BME280;58429;49.826;10.880;2022-08-21T04:43:54;98712;;;15.63;88.41
4326;BME280;58429;49.826;10.880;2022-08-21T04:44:54;98706;;;15.66;88.51
4326;BME280;58429;49.826;10.880;2022-08-21T04:45:54;98712;;;15.61;88.44
4326;BME280;58429;49.826;10.880;2022-08-21T04:46:54;98717;;;15.66;88.63
4326;BME280;58429;49.826;10.880;2022-08-21T04:47:55;98723;;;15.65;88.58
4326;BME280;58429;49.826;10.880;2022-08-21T04:48:54;98721;;;15.63;88.76
4326;BME280;58429;49.826;10.880;2022-08-21T04:49:54;98719;;;15.63;88.53
4326;BME280;58429;49.826;10.880;2022-08-21T04:50:55;98719;;;15.63;88.38
4326;BME280;58429;49.826;10.880;2022-08-21T04:51:54;98724;;;15.71;88.53
4326;BME280;58429;49.826;10.880;2022-08-21T04:52:54;98728;;;15.63;88.68
4326;BME280;58429;49.826;10.880;2022-08-21T04:53:55;98719;;;15.65;88.64
4326;BME280;58429;49.826;10.880;2022-08-21T04:54:54;98726;;;15.68;88.65
4326;BME280;58429;49.826;10.880;2022-08-21T04:55:54;98724;;;15.67;88.51
4326;BME280;58429;49.826;10.880;2022-08-21T04:56:55;98719;;;15.65;88.53
4326;BME280;58429;49.826;10.880;2022-08-21T04:57:54;98722;;;15.62;88.73
4326;BME280;58429;49.826;10.880;2022-08-21T04:58:54;98722;;;15.61;88.57
4326;BME280;58429;49.826;10.880;2022-08-21T04:59:54;98722;;;15.65;88.74
4326;BME280;58429;49.826;10.880;2022-08-21T05:00:54;98722;;;15.66;88.7
4326;BME280;58429;49.826;10.880;2022-08-21T05:01:54;98721;;;15.65;88.61
4326;BME280;58429;49.826;10.880;2022-08-21T05:02:54;98722;;;15.65;88.58
4326;BME280;58429;49.826;10.880;2022-08-21T05:03:55;98725;;;15.68;88.58
4326;BME280;58429;49.826;10.880;2022-08-21T05:04:54;98719;;;15.7;88.8
4326;BME280;58429;49.826;10.880;2022-08-21T05:05:54;98729;;;15.66;88.94
4326;BME280;58429;49.826;10.880;2022-08-21T05:06:54;98723;;;15.67;88.83
4326;BME280;58429;49.826;10.880;2022-08-21T05:07:54;98728;;;15.66;88.67
4326;BME280;58429;49.826;10.880;2022-08-21T05:08:54;98732;;;15.69;88.61
4326;BME280;58429;49.826;10.880;2022-08-21T05:09:54;98728;;;15.75;88.6
4326;BME280;58429;49.826;10.880;2022-08-21T05:10:54;98728;;;15.74;88.59
4326;BME280;58429;49.826;10.880;2022-08-21T05:11:54;98732;;;15.77;88.58
4326;BME280;58429;49.826;10.880;2022-08-21T05:12:54;98732;;;15.8;88.62
4326;BME280;58429;49.826;10.880;2022-08-21T05:13:54;98736;;;15.81;88.65
4326;BME280;58429;49.826;10.880;2022-08-21T05:14:54;98738;;;15.82;88.67
4326;BME280;58429;49.826;10.880;2022-08-21T05:15:54;98739;;;15.81;88.65
4326;BME280;58429;49.826;10.880;2022-08-21T05:16:59;98740;;;15.83;88.59
4326;BME280;58429;49.826;10.880;2022-08-21T05:17:54;98737;;;15.84;88.62
4326;BME280;58429;49.826;10.880;2022-08-21T05:18:54;98739;;;15.86;88.58
4326;BME280;58429;49.826;10.880;2022-08-21T05:19:54;98738;;;15.86;88.51
4326;BME280;58429;49.826;10.880;2022-08-21T05:20:54;98741;;;15.88;88.52
4326;BME280;58429;49.826;10.880;2022-08-21T05:21:54;98739;;;15.88;88.44
4326;BME280;58429;49.826;10.880;2022-08-21T05:22:54;98740;;;15.9;88.4
4326;BME280;58429;49.826;10.880;2022-08-21T05:23:54;98735;;;15.92;88.37
4326;BME280;58429;49.826;10.880;2022-08-21T05:24:54;98740;;;15.96;88.37
4326;BME280;58429;49.826;10.880;2022-08-21T05:25:54;98744;;;15.98;88.33
4326;BME280;58429;49.826;10.880;2022-08-21T05:26:54;98738;;;16.04;88.27
4326;BME280;58429;49.826;10.880;2022-08-21T05:27:54;98748;;;16.02;88.21
4326;BME280;58429;49.826;10.880;2022-08-21T05:28:54;98739;;;16.04;88.15
4326;BME280;58429;49.826;10.880;2022-08-21T05:29:54;98741;;;16.05;88.05
4326;BME280;58429;49.826;10.880;2022-08-21T05:30:54;98744;;;16.06;88.08
4326;BME280;58429;49.826;10.880;2022-08-21T05:31:54;98744;;;16.06;88.05